Time;durP1;ratioP1;P1;durP2;ratioP2;P2;SDS_P1;SDS_P2;PMS_P1;PMS_P2;Temp;Humidity;BMP_temperature;BMP_pressure;BME280_temperature;BME280_humidity;BME280_pressure;Samples;Min_cycle;Max_cycle;Signal;HPM_P1;HPM_P2
2022/10/24 00:03:00;;;;;;;18.77;16.48;;;16.80;99.90;;;;;;4592407;19;20007;-29
2022/10/24 00:04:35;;;;;;;17.63;15.93;;;16.70;99.90;;;;;;4592847;19;20074;-27
2022/10/24 00:06:06;;;;;;;16.63;14.75;;;16.70;99.90;;;;;;4592738;19;20018;-29
2022/10/24 00:07:37;;;;;;;19.40;16.30;;;16.70;99.90;;;;;;4593202;19;20034;-29
2022/10/24 00:09:08;;;;;;;17.50;15.70;;;16.70;99.90;;;;;;4592607;19;20015;-31
2022/10/24 00:10:42;;;;;;;19.83;16.15;;;16.70;99.90;;;;;;4592411;19;20011;-27
2022/10/24 00:12:13;;;;;;;17.27;15.50;;;16.70;99.90;;;;;;4590805;19;20006;-28
2022/10/24 00:13:45;;;;;;;17.35;15.35;;;16.70;99.90;;;;;;4593735;19;20003;-27
2022/10/24 00:15:17;;;;;;;18.33;16.48;;;16.70;99.90;;;;;;4592339;19;20006;-29
2022/10/24 00:16:48;;;;;;;17.75;15.35;;;16.70;99.90;;;;;;4592467;19;20014;-28
2022/10/24 00:18:19;;;;;;;17.33;15.43;;;16.70;99.90;;;;;;4592411;19;20078;-29
2022/10/24 00:19:53;;;;;;;17.35;15.55;;;16.70;99.90;;;;;;4593338;19;20018;-28
2022/10/24 00:21:24;;;;;;;16.67;14.93;;;16.70;99.90;;;;;;4592608;19;20006;-28
2022/10/24 00:22:56;;;;;;;18.40;16.45;;;16.70;99.90;;;;;;4592820;19;20509;-30
2022/10/24 00:24:27;;;;;;;19.45;16.83;;;16.70;99.90;;;;;;4592732;19;20014;-27
2022/10/24 00:27:45;;;;;;;18.60;16.63;;;16.70;99.90;;;;;;4591370;19;20400;-27
2022/10/24 00:29:15;;;;;;;20.13;17.90;;;16.70;99.90;;;;;;4591303;19;20007;-32
2022/10/24 00:30:51;;;;;;;21.27;19.08;;;16.70;99.90;;;;;;4592415;19;20460;-28
2022/10/24 00:32:22;;;;;;;19.17;17.23;;;16.70;99.90;;;;;;4592994;19;20014;-30
2022/10/24 00:33:55;;;;;;;19.40;17.42;;;16.70;99.90;;;;;;4592297;19;20183;-29
2022/10/24 00:35:27;;;;;;;20.60;18.40;;;16.70;99.90;;;;;;4592373;19;20032;-26
2022/10/24 00:36:59;;;;;;;20.48;18.38;;;16.70;99.90;;;;;;4592816;19;20036;-32
2022/10/24 00:38:30;;;;;;;22.00;19.08;;;16.70;99.90;;;;;;4592334;19;20330;-28
2022/10/24 00:40:04;;;;;;;19.90;17.80;;;16.70;99.90;;;;;;4591888;19;20007;-28
2022/10/24 00:41:38;;;;;;;19.92;17.60;;;16.70;99.90;;;;;;4592173;19;20018;-28
2022/10/24 00:43:14;;;;;;;19.50;17.50;;;16.70;99.90;;;;;;4592003;19;20012;-26
2022/10/24 00:44:45;;;;;;;21.05;18.27;;;16.70;99.90;;;;;;4590779;19;20014;-30
2022/10/24 00:46:16;;;;;;;19.85;17.85;;;16.80;99.90;;;;;;4590895;19;20014;-27
2022/10/24 00:47:47;;;;;;;22.30;18.05;;;16.80;99.90;;;;;;4591221;19;20042;-29
2022/10/24 00:49:23;;;;;;;18.27;16.40;;;16.80;99.90;;;;;;4591902;19;20499;-29
2022/10/24 00:51:00;;;;;;;19.40;17.45;;;16.80;99.90;;;;;;4590816;19;20475;-27
2022/10/24 00:52:35;;;;;;;19.98;17.88;;;16.80;99.90;;;;;;4591686;19;20028;-30
2022/10/24 00:54:09;;;;;;;19.50;17.45;;;16.90;99.90;;;;;;4590977;19;20015;-30
2022/10/24 00:55:40;;;;;;;20.17;17.05;;;16.90;99.90;;;;;;4591607;19;20024;-28
2022/10/24 00:59:31;;;;;;;19.60;17.67;;;16.90;99.90;;;;;;4591127;19;20038;-29
2022/10/24 01:01:04;;;;;;;18.10;16.20;;;16.80;99.90;;;;;;4590126;19;20472;-34
2022/10/24 01:02:36;;;;;;;18.52;16.58;;;16.90;99.90;;;;;;4591618;19;20038;-29
2022/10/24 01:04:11;;;;;;;20.85;18.73;;;16.90;99.90;;;;;;4591117;19;20015;-29
2022/10/24 01:06:20;;;;;;;19.35;17.33;;;16.80;99.90;;;;;;4590336;19;20015;-29
2022/10/24 01:08:14;;;;;;;20.60;18.48;;;16.80;99.90;;;;;;4589563;19;20020;-29
2022/10/24 01:09:51;;;;;;;19.90;17.80;;;16.80;99.90;;;;;;4589042;19;20010;-30
2022/10/24 01:11:56;;;;;;;21.60;19.13;;;16.90;99.90;;;;;;4589240;19;20011;-30
2022/10/24 01:13:48;;;;;;;20.92;17.17;;;16.80;99.90;;;;;;4589352;19;20461;-29
2022/10/24 01:15:38;;;;;;;21.85;18.38;;;16.80;99.90;;;;;;4589056;19;20010;-32
2022/10/24 01:17:30;;;;;;;20.48;18.20;;;16.80;99.90;;;;;;4588880;19;20014;-29
2022/10/24 01:19:27;;;;;;;18.35;16.55;;;16.80;99.90;;;;;;4589596;19;20025;-30
2022/10/24 01:21:24;;;;;;;20.65;17.45;;;16.80;99.90;;;;;;4589431;19;20031;-29
2022/10/24 01:23:08;;;;;;;19.98;17.85;;;16.80;99.90;;;;;;4588464;19;20011;-31
2022/10/24 01:24:45;;;;;;;18.83;16.92;;;16.80;99.90;;;;;;4589076;19;20117;-28
2022/10/24 01:26:36;;;;;;;20.58;18.33;;;16.80;99.90;;;;;;4587444;19;20018;-28
2022/10/24 01:29:56;;;;;;;18.67;16.77;;;16.80;99.90;;;;;;4588819;19;20058;-29
2022/10/24 01:31:33;;;;;;;19.05;17.15;;;16.80;99.90;;;;;;4588767;19;20070;-30
2022/10/24 01:33:14;;;;;;;20.17;17.67;;;16.80;99.90;;;;;;4588771;19;20018;-31
2022/10/24 01:35:13;;;;;;;18.27;16.48;;;16.80;99.90;;;;;;4588025;19;20010;-30
2022/10/24 01:37:28;;;;;;;19.45;17.42;;;16.80;99.90;;;;;;4587583;19;20031;-29
2022/10/24 01:39:01;;;;;;;18.58;16.10;;;16.80;99.90;;;;;;4588149;19;20022;-28
2022/10/24 01:40:44;;;;;;;17.60;15.80;;;16.80;99.90;;;;;;4588444;19;20022;-30
2022/10/24 01:42:16;;;;;;;18.05;16.15;;;16.80;99.90;;;;;;4588707;19;20007;-30
2022/10/24 01:43:56;;;;;;;20.73;18.63;;;16.80;99.90;;;;;;4588522;19;20018;-30
2022/10/24 01:45:31;;;;;;;19.00;17.00;;;16.80;99.90;;;;;;4589175;19;20010;-30
2022/10/24 01:47:25;;;;;;;19.23;17.20;;;16.80;99.90;;;;;;4589588;19;20404;-29
2022/10/24 01:49:14;;;;;;;18.25;16.40;;;16.80;99.90;;;;;;4589984;19;20038;-31
2022/10/24 01:50:48;;;;;;;18.58;16.58;;;16.70;99.90;;;;;;4589760;19;20403;-29
2022/10/24 01:52:19;;;;;;;19.98;17.98;;;16.80;99.90;;;;;;4589459;19;20078;-29
2022/10/24 01:53:51;;;;;;;18.48;16.17;;;16.80;99.90;;;;;;4590010;19;20021;-29
2022/10/24 01:55:22;;;;;;;19.60;17.50;;;16.80;99.90;;;;;;4589208;19;20018;-29
2022/10/24 01:56:53;;;;;;;20.50;18.38;;;16.70;99.90;;;;;;4589551;19;20027;-31
2022/10/24 01:58:25;;;;;;;18.85;16.95;;;16.70;99.90;;;;;;4590148;19;20018;-28
2022/10/24 01:59:56;;;;;;;18.52;16.63;;;16.80;99.90;;;;;;4591239;19;20464;-29
2022/10/24 02:01:27;;;;;;;18.50;16.48;;;16.80;99.90;;;;;;4590560;19;20010;-28
2022/10/24 02:03:17;;;;;;;18.23;16.33;;;16.80;99.90;;;;;;4590631;19;20074;-28
2022/10/24 02:05:18;;;;;;;18.55;16.45;;;16.80;99.90;;;;;;4589275;19;20010;-32
2022/10/24 02:06:49;;;;;;;20.92;18.83;;;16.80;99.90;;;;;;4589418;19;20015;-29
2022/10/24 02:08:24;;;;;;;20.90;18.70;;;16.80;99.90;;;;;;4587926;19;20053;-29
2022/10/24 02:10:11;;;;;;;20.05;17.95;;;16.80;99.90;;;;;;4588006;19;20022;-31
2022/10/24 02:11:43;;;;;;;20.25;18.15;;;16.80;99.90;;;;;;4587976;19;20346;-29
2022/10/24 02:13:18;;;;;;;20.55;18.55;;;16.70;99.90;;;;;;4588139;19;20017;-29
2022/10/24 02:14:52;;;;;;;18.60;16.60;;;16.70;99.90;;;;;;4588639;19;20074;-29
2022/10/24 02:16:25;;;;;;;20.23;17.80;;;16.80;99.90;;;;;;4587258;19;20021;-34
2022/10/24 02:17:56;;;;;;;20.52;18.38;;;16.80;99.90;;;;;;4588280;19;20493;-29
2022/10/24 02:19:28;;;;;;;21.20;19.02;;;16.80;99.90;;;;;;4588305;19;20014;-28
2022/10/24 02:21:27;;;;;;;21.08;18.88;;;16.80;99.90;;;;;;4588271;19;20003;-28
2022/10/24 02:23:09;;;;;;;21.52;17.95;;;16.80;99.90;;;;;;4588216;19;20011;-28
2022/10/24 02:25:00;;;;;;;19.35;17.25;;;16.80;99.90;;;;;;4587788;19;20074;-29
2022/10/24 02:26:33;;;;;;;19.80;17.73;;;16.80;99.90;;;;;;4588101;19;20014;-31
2022/10/24 02:28:08;;;;;;;20.63;18.23;;;16.90;99.90;;;;;;4587821;19;20070;-31
2022/10/24 04:54:34;;;;;;;24.83;22.27;;;16.70;99.90;;;;;;4590505;19;20011;-28
2022/10/24 04:56:05;;;;;;;26.38;23.63;;;16.70;99.90;;;;;;4590864;19;20379;-29
2022/10/24 04:57:36;;;;;;;25.67;21.98;;;16.70;99.90;;;;;;4590775;19;20038;-29
2022/10/24 04:59:08;;;;;;;22.70;20.40;;;16.70;99.90;;;;;;4592464;19;20022;-29
2022/10/24 05:00:42;;;;;;;24.38;21.13;;;16.70;99.90;;;;;;4589376;19;20044;-30
2022/10/24 05:02:13;;;;;;;21.35;19.05;;;16.70;99.90;;;;;;4591455;19;20503;-31
2022/10/24 05:03:44;;;;;;;22.77;20.42;;;16.70;99.90;;;;;;4591919;19;20006;-28
2022/10/24 05:05:17;;;;;;;23.42;20.88;;;16.70;99.90;;;;;;4590416;19;20463;-29
2022/10/24 05:06:48;;;;;;;22.67;19.85;;;16.70;99.90;;;;;;4591305;19;20014;-28
2022/10/24 05:08:20;;;;;;;24.85;21.77;;;16.70;99.90;;;;;;4591512;19;20023;-30
2022/10/24 05:09:51;;;;;;;23.23;20.75;;;16.70;99.90;;;;;;4592606;19;20021;-30
2022/10/24 05:11:23;;;;;;;24.55;22.02;;;16.70;99.90;;;;;;4591762;19;20014;-29
2022/10/24 05:12:54;;;;;;;23.73;21.13;;;16.70;99.90;;;;;;4591585;19;20364;-29
2022/10/24 05:14:28;;;;;;;24.15;21.55;;;16.70;99.90;;;;;;4591737;19;20015;-30
2022/10/24 05:15:59;;;;;;;;;;;16.70;99.90;;;;;;4592769;19;20009;-28
2022/10/24 05:17:31;;;;;;;21.65;19.45;;;16.70;99.90;;;;;;4591301;19;19910;-30
2022/10/24 05:19:03;;;;;;;22.67;20.33;;;16.70;99.90;;;;;;4591529;19;20011;-29
2022/10/24 05:20:36;;;;;;;21.30;18.98;;;16.70;99.90;;;;;;4591523;19;20013;-30
2022/10/24 05:22:07;;;;;;;21.65;19.48;;;16.70;99.90;;;;;;4591828;19;20014;-31
2022/10/24 05:23:53;;;;;;;20.67;18.48;;;16.70;99.90;;;;;;4591208;19;20020;-30
2022/10/24 05:25:25;;;;;;;;;;;16.70;99.90;;;;;;4590700;19;20017;-29
2022/10/24 05:26:56;;;;;;;19.33;17.33;;;16.70;99.90;;;;;;4590948;19;19922;-30
2022/10/24 05:28:28;;;;;;;18.33;16.45;;;16.70;99.90;;;;;;4592112;19;20317;-30
2022/10/24 05:30:00;;;;;;;21.02;17.80;;;16.70;99.90;;;;;;4590959;19;20374;-30
2022/10/24 05:31:32;;;;;;;20.33;18.23;;;16.70;99.90;;;;;;4591327;19;20519;-28
2022/10/24 05:33:03;;;;;;;20.85;17.58;;;16.70;99.90;;;;;;4590804;19;20397;-30
2022/10/24 05:34:34;;;;;;;21.58;18.35;;;16.70;99.90;;;;;;4590594;19;20035;-31
2022/10/24 05:36:06;;;;;;;;;;;16.80;99.90;;;;;;4591545;19;20046;-31
2022/10/24 05:37:38;;;;;;;20.98;17.23;;;16.80;99.90;;;;;;4590720;19;19923;-29
2022/10/24 05:39:09;;;;;;;18.05;16.25;;;16.90;99.90;;;;;;4590254;19;20018;-30
2022/10/24 05:40:41;;;;;;;17.58;15.43;;;17.00;99.90;;;;;;4591057;19;20006;-29
2022/10/24 05:42:14;;;;;;;18.58;16.67;;;17.00;99.90;;;;;;4590750;19;20046;-31
2022/10/24 05:43:46;;;;;;;17.60;15.68;;;17.10;99.90;;;;;;4590264;19;20014;-31
2022/10/24 05:45:19;;;;;;;17.48;15.27;;;17.20;99.90;;;;;;4590252;19;20454;-29
2022/10/24 05:46:51;;;;;;;16.50;14.57;;;17.20;99.90;;;;;;4590559;19;20010;-28
2022/10/24 05:48:26;;;;;;;17.23;14.75;;;17.20;99.90;;;;;;4590830;19;20007;-28
2022/10/24 05:49:57;;;;;;;17.48;14.63;;;17.20;99.90;;;;;;4589040;19;20663;-28
2022/10/24 05:51:29;;;;;;;16.48;14.77;;;17.20;99.90;;;;;;4590128;19;20010;-31
2022/10/24 05:53:01;;;;;;;16.75;14.57;;;17.20;99.90;;;;;;4590232;19;20345;-29
2022/10/24 05:59:51;;;;;;;21.70;18.05;;;17.20;99.90;;;;;;4588168;19;20014;-28
2022/10/24 06:01:22;;;;;;;19.90;17.95;;;17.20;99.90;;;;;;4589792;19;20081;-29
2022/10/24 06:02:57;;;;;;;17.80;15.73;;;17.20;99.90;;;;;;4588741;19;20021;-28
2022/10/24 06:04:29;;;;;;;17.88;14.88;;;17.20;99.90;;;;;;4590430;19;20034;-27
2022/10/24 06:06:05;;;;;;;15.73;14.13;;;17.20;99.90;;;;;;4590654;19;20015;-29
2022/10/24 06:07:36;;;;;;;16.75;14.95;;;17.20;99.90;;;;;;4590055;19;20361;-28
2022/10/24 06:09:09;;;;;;;15.30;13.70;;;17.20;99.90;;;;;;4588678;19;20364;-28
2022/10/24 06:10:40;;;;;;;17.23;14.98;;;17.30;99.90;;;;;;4587782;19;20006;-32
2022/10/24 06:12:12;;;;;;;;;;;17.30;99.90;;;;;;4590557;19;20022;-28
2022/10/24 06:13:44;;;;;;;16.42;14.68;;;17.30;99.90;;;;;;4589852;19;19911;-29
2022/10/24 06:15:15;;;;;;;18.10;16.00;;;17.30;99.90;;;;;;4589681;19;20019;-29
2022/10/24 06:16:48;;;;;;;19.92;17.80;;;17.40;99.90;;;;;;4587898;19;20472;-29
2022/10/24 06:18:19;;;;;;;18.80;16.90;;;17.40;99.90;;;;;;4589607;19;20349;-29
2022/10/24 06:19:53;;;;;;;18.55;16.52;;;17.50;99.90;;;;;;4589688;19;20014;-28
2022/10/24 06:21:25;;;;;;;22.88;18.65;;;17.50;99.90;;;;;;4589532;19;20010;-28
2022/10/24 06:22:56;;;;;;;24.58;22.20;;;17.20;99.90;;;;;;4589835;19;20349;-30
2022/10/24 06:24:27;;;;;;;22.77;20.58;;;15.80;99.90;;;;;;4589852;19;20029;-30
2022/10/24 06:26:00;;;;;;;23.38;21.13;;;15.10;99.90;;;;;;4590099;19;20013;-34
2022/10/24 06:27:31;;;;;;;24.85;22.08;;;14.80;99.90;;;;;;4588549;19;20018;-30
2022/10/24 06:29:02;;;;;;;25.30;22.70;;;14.60;99.90;;;;;;4590348;19;20460;-29
2022/10/24 06:30:34;;;;;;;32.83;29.27;;;14.60;99.90;;;;;;4589534;19;20014;-31
2022/10/24 06:32:06;;;;;;;30.53;27.27;;;14.50;99.90;;;;;;4589896;19;20492;-30
2022/10/24 06:33:37;;;;;;;31.52;27.13;;;14.50;99.90;;;;;;4590192;19;20456;-30
2022/10/24 06:35:11;;;;;;;32.53;26.90;;;14.50;99.90;;;;;;4589113;19;20070;-31
2022/10/24 06:36:42;;;;;;;33.15;27.63;;;14.50;99.90;;;;;;4588667;19;20014;-30
2022/10/24 06:38:14;;;;;;;32.90;27.23;;;14.50;99.90;;;;;;4589945;19;20015;-29
2022/10/24 06:39:44;;;;;;;32.67;26.92;;;14.50;99.90;;;;;;4590077;19;20020;-31
2022/10/24 06:41:16;;;;;;;34.38;27.75;;;14.50;99.90;;;;;;4589987;19;20024;-29
2022/10/24 06:42:47;;;;;;;34.28;26.75;;;14.50;99.90;;;;;;4589412;19;20045;-31
2022/10/24 06:44:18;;;;;;;26.63;23.02;;;14.50;99.90;;;;;;4588618;19;20010;-29
2022/10/24 06:45:49;;;;;;;27.63;24.30;;;14.50;99.90;;;;;;4589213;19;20034;-35
2022/10/24 06:47:20;;;;;;;25.88;23.15;;;14.50;99.90;;;;;;4589452;19;20014;-29
2022/10/24 06:48:54;;;;;;;27.45;23.63;;;14.40;99.90;;;;;;4589647;19;20081;-30
2022/10/24 06:50:25;;;;;;;26.08;23.38;;;14.40;99.90;;;;;;4589519;19;20074;-29
2022/10/24 06:51:56;;;;;;;24.50;22.08;;;14.50;99.90;;;;;;4590151;19;20023;-31
2022/10/24 06:53:27;;;;;;;26.33;23.60;;;14.40;99.90;;;;;;4589603;19;20016;-30
2022/10/24 06:54:58;;;;;;;26.00;23.33;;;14.40;99.90;;;;;;4589389;19;20014;-29
2022/10/24 06:56:29;;;;;;;25.60;22.88;;;14.40;99.90;;;;;;4588680;19;20022;-29
2022/10/24 06:58:00;;;;;;;24.48;21.98;;;14.50;99.90;;;;;;4590165;19;20359;-30
2022/10/24 06:59:31;;;;;;;24.60;22.00;;;14.40;99.90;;;;;;4589172;19;20010;-30
2022/10/24 09:02:38;;;;;;;16.63;14.93;;;16.40;99.90;;;;;;4589805;19;20022;-31
2022/10/24 09:04:10;;;;;;;18.23;16.08;;;16.40;99.90;;;;;;4590602;19;20021;-30
2022/10/24 09:05:49;;;;;;;15.20;13.52;;;16.40;99.90;;;;;;4590532;19;20022;-30
2022/10/24 09:07:20;;;;;;;15.77;13.82;;;16.50;99.90;;;;;;4590561;19;20015;-29
2022/10/24 09:08:58;;;;;;;16.45;14.00;;;16.50;99.90;;;;;;4590436;19;20043;-30
2022/10/24 09:10:40;;;;;;;15.07;13.50;;;16.50;99.90;;;;;;4591229;19;20033;-31
2022/10/24 09:17:31;;;;;;;14.43;12.73;;;16.60;99.90;;;;;;4590993;19;19979;-33
2022/10/24 09:19:02;;;;;;;14.90;13.20;;;16.60;99.90;;;;;;4591282;19;20023;-29
2022/10/24 09:23:15;;;;;;;15.05;11.73;;;16.60;99.90;;;;;;4591023;19;19981;-30
2022/10/24 09:27:24;;;;;;;17.13;13.77;;;16.60;99.90;;;;;;4591298;19;20015;-30
2022/10/24 09:28:58;;;;;;;14.63;12.68;;;16.60;99.90;;;;;;4591862;19;20472;-29
2022/10/24 09:30:29;;;;;;;13.82;12.35;;;16.60;99.90;;;;;;4590859;19;20021;-29
2022/10/24 09:32:00;;;;;;;15.27;13.68;;;16.60;99.90;;;;;;4590562;19;20015;-29
2022/10/24 09:33:34;;;;;;;15.05;12.32;;;16.60;99.90;;;;;;4590933;19;20007;-31
2022/10/24 09:35:11;;;;;;;14.43;12.93;;;16.70;99.90;;;;;;4588974;19;20423;-30
2022/10/24 09:36:45;;;;;;;14.82;13.32;;;16.70;99.90;;;;;;4588968;19;20081;-34
2022/10/24 09:38:24;;;;;;;13.52;12.00;;;16.70;99.90;;;;;;4590741;19;20078;-31
2022/10/24 09:40:19;;;;;;;13.55;12.15;;;16.70;99.90;;;;;;4590778;19;20011;-29
2022/10/24 09:41:50;;;;;;;14.85;13.25;;;16.70;99.90;;;;;;4589972;19;20034;-29
2022/10/24 09:43:37;;;;;;;16.63;13.82;;;16.70;99.90;;;;;;4590298;19;20011;-30
2022/10/24 09:45:56;;;;;;;16.48;14.73;;;16.70;99.90;;;;;;4591244;19;20030;-30
2022/10/24 09:47:28;;;;;;;16.08;14.38;;;16.70;99.90;;;;;;4588463;19;20055;-31
2022/10/24 09:49:18;;;;;;;14.35;12.43;;;16.70;99.90;;;;;;4588986;19;19999;-33
2022/10/24 09:50:49;;;;;;;14.93;12.95;;;16.70;99.90;;;;;;4588562;19;20018;-31
2022/10/24 09:52:24;;;;;;;;;;;16.70;99.90;;;;;;4589107;19;20015;-30
2022/10/24 09:54:18;;;;;;;13.30;11.88;;;16.70;99.90;;;;;;4588562;19;20361;-30
2022/10/24 09:55:54;;;;;;;11.93;10.63;;;16.70;99.90;;;;;;4588336;19;20014;-30
2022/10/24 09:57:25;;;;;;;13.55;10.52;;;16.70;99.90;;;;;;4589073;19;20017;-31
2022/10/24 09:58:56;;;;;;;17.38;12.27;;;16.70;99.90;;;;;;4588398;19;20019;-29
2022/10/24 10:00:34;;;;;;;14.25;12.75;;;16.80;99.90;;;;;;4588334;19;20018;-31
2022/10/24 10:02:27;;;;;;;14.07;11.88;;;16.80;99.90;;;;;;4588610;19;20484;-30
2022/10/24 10:05:45;;;;;;;15.00;12.10;;;16.80;99.90;;;;;;4588873;19;19995;-29
2022/10/24 10:07:18;;;;;;;12.85;11.55;;;16.80;99.90;;;;;;4587727;19;20033;-28
2022/10/24 10:08:51;;;;;;;12.30;10.95;;;16.80;99.90;;;;;;4588041;19;20010;-30
2022/10/24 10:10:34;;;;;;;13.82;11.23;;;16.80;99.90;;;;;;4587965;19;20031;-32
2022/10/24 10:12:05;;;;;;;14.27;11.65;;;16.80;99.90;;;;;;4587854;19;20018;-30
2022/10/24 10:13:52;;;;;;;14.57;11.30;;;16.80;99.90;;;;;;4588303;19;20015;-32
2022/10/24 10:15:46;;;;;;;13.07;11.70;;;16.80;99.90;;;;;;4587973;19;20472;-30
2022/10/24 10:17:26;;;;;;;12.38;11.10;;;16.90;99.90;;;;;;4588089;19;20114;-28
2022/10/24 10:19:18;;;;;;;12.18;10.60;;;16.80;99.90;;;;;;4588272;19;20125;-29
2022/10/24 10:21:12;;;;;;;12.43;11.07;;;16.90;99.90;;;;;;4588266;19;20003;-29
2022/10/24 10:22:43;;;;;;;13.20;11.10;;;16.90;99.90;;;;;;4588182;19;20498;-29
2022/10/24 10:24:41;;;;;;;10.63;8.68;;;16.80;99.90;;;;;;4587964;19;20010;-28
2022/10/24 10:26:17;;;;;;;14.23;12.02;;;16.80;99.90;;;;;;4588747;19;19998;-29
2022/10/24 10:35:55;;;;;;;13.25;11.82;;;16.90;99.90;;;;;;4588926;19;20006;-30
2022/10/24 10:37:31;;;;;;;13.95;11.95;;;16.90;99.90;;;;;;4587602;19;20011;-30
2022/10/24 10:39:22;;;;;;;13.23;11.80;;;16.90;99.90;;;;;;4587848;19;20035;-32
2022/10/24 10:41:19;;;;;;;17.13;12.18;;;16.90;99.90;;;;;;4588113;19;20022;-31
2022/10/24 10:43:20;;;;;;;12.65;11.35;;;16.90;99.90;;;;;;4587393;19;20120;-29
2022/10/24 10:45:29;;;;;;;13.80;11.30;;;17.00;99.90;;;;;;4586982;19;20356;-29
2022/10/24 10:47:35;;;;;;;13.93;10.98;;;16.90;99.90;;;;;;4587776;19;20039;-30
2022/10/24 10:49:22;;;;;;;13.43;12.13;;;16.90;99.90;;;;;;4587658;19;20020;-30
2022/10/24 10:51:18;;;;;;;13.90;12.40;;;17.00;99.90;;;;;;4587162;19;20017;-30
2022/10/24 10:52:49;;;;;;;13.45;11.55;;;16.90;99.90;;;;;;4587010;19;20015;-31
2022/10/24 10:54:43;;;;;;;13.50;12.00;;;16.90;99.90;;;;;;4586394;19;20512;-30
2022/10/24 10:56:32;;;;;;;14.85;11.57;;;16.90;99.90;;;;;;4589128;19;20123;-30
2022/10/24 10:58:22;;;;;;;12.82;11.63;;;16.90;99.90;;;;;;4591953;19;20037;-33
2022/10/24 10:59:56;;;;;;;14.13;12.73;;;16.90;99.90;;;;;;4592738;19;20018;-32
2022/10/24 11:01:27;;;;;;;13.07;11.73;;;16.90;99.90;;;;;;4591533;19;20003;-29
2022/10/24 11:03:19;;;;;;;15.50;12.70;;;16.90;99.90;;;;;;4591276;19;20099;-30
2022/10/24 11:08:52;;;;;;;16.67;12.27;;;16.90;99.90;;;;;;4592030;19;20457;-30
2022/10/24 11:10:26;;;;;;;14.07;11.50;;;16.90;99.90;;;;;;4591658;19;20458;-28
2022/10/24 11:12:17;;;;;;;14.13;12.00;;;16.90;99.90;;;;;;4591801;19;20006;-30
2022/10/24 11:13:56;;;;;;;12.50;10.88;;;16.90;99.90;;;;;;4591553;19;20014;-31
2022/10/24 11:15:33;;;;;;;15.07;11.85;;;16.90;99.90;;;;;;4591242;19;20041;-29
2022/10/24 11:17:10;;;;;;;15.15;13.50;;;16.90;99.90;;;;;;4590131;19;20014;-28
2022/10/24 11:18:42;;;;;;;14.40;12.98;;;16.90;99.90;;;;;;4591684;19;20010;-29
2022/10/24 11:20:18;;;;;;;15.73;12.80;;;16.90;99.90;;;;;;4591276;19;20014;-29
2022/10/24 11:21:49;;;;;;;14.02;12.60;;;16.90;99.90;;;;;;4591553;19;20014;-29
2022/10/24 11:23:40;;;;;;;14.88;11.70;;;16.80;99.90;;;;;;4591249;19;20021;-30
2022/10/24 11:26:02;;;;;;;13.45;10.98;;;16.90;99.90;;;;;;4591553;19;20442;-29
2022/10/24 11:27:43;;;;;;;12.27;10.70;;;16.90;99.90;;;;;;4591194;19;20003;-29
2022/10/24 11:29:33;;;;;;;12.80;10.25;;;16.90;99.90;;;;;;4593493;19;20028;-29
2022/10/24 11:31:15;;;;;;;13.43;9.75;;;16.90;99.90;;;;;;4591230;19;20015;-29
2022/10/24 11:32:48;;;;;;;11.52;10.32;;;16.90;99.90;;;;;;4591306;19;20018;-29
2022/10/24 11:34:49;;;;;;;12.05;10.70;;;16.80;99.90;;;;;;4590764;19;20015;-30
2022/10/24 11:36:34;;;;;;;13.05;10.57;;;16.90;99.90;;;;;;4590458;19;20495;-29
2022/10/24 11:40:26;;;;;;;11.90;8.98;;;16.80;99.90;;;;;;4591632;19;20011;-32
2022/10/24 11:42:22;;;;;;;11.70;10.48;;;16.90;99.90;;;;;;4591007;19;20483;-30
2022/10/24 11:43:54;;;;;;;11.63;9.90;;;16.90;99.90;;;;;;4591311;19;20007;-29
2022/10/24 11:45:32;;;;;;;12.32;10.00;;;16.90;99.90;;;;;;4591649;19;20035;-30
2022/10/24 11:47:22;;;;;;;11.45;9.98;;;16.80;99.90;;;;;;4590934;19;20035;-30
2022/10/24 11:48:57;;;;;;;10.82;9.63;;;16.90;99.90;;;;;;4590527;19;20020;-31
2022/10/24 11:50:38;;;;;;;13.50;10.15;;;16.90;99.90;;;;;;4590853;19;20027;-29
2022/10/24 11:52:15;;;;;;;14.18;11.65;;;16.90;99.90;;;;;;4590836;19;20010;-28
2022/10/24 11:53:48;;;;;;;20.00;15.38;;;16.90;99.90;;;;;;4591173;19;20031;-28
2022/10/24 11:55:37;;;;;;;18.77;15.82;;;16.90;99.90;;;;;;4591032;19;20018;-29
2022/10/24 11:57:14;;;;;;;18.08;14.27;;;16.90;99.90;;;;;;4589741;19;20002;-30
2022/10/24 11:58:59;;;;;;;18.08;14.23;;;16.90;99.90;;;;;;4590405;19;20010;-30
2022/10/24 12:00:36;;;;;;;16.25;13.27;;;16.90;99.90;;;;;;4590501;19;20014;-29
2022/10/24 12:02:44;;;;;;;15.65;13.50;;;16.90;99.90;;;;;;4591561;19;20048;-29
2022/10/24 12:04:52;;;;;;;19.27;15.30;;;16.80;99.90;;;;;;4590484;19;20448;-29
2022/10/24 12:06:41;;;;;;;16.88;13.20;;;16.80;99.90;;;;;;4590398;19;20014;-30
2022/10/24 12:08:52;;;;;;;11.35;10.10;;;16.80;99.90;;;;;;4589400;19;20393;-30
2022/10/24 12:14:01;;;;;;;12.13;10.40;;;16.80;99.90;;;;;;4589712;19;20310;-31
2022/10/24 12:15:47;;;;;;;12.32;10.15;;;16.80;99.90;;;;;;4590406;19;20011;-28
2022/10/24 12:17:30;;;;;;;13.52;10.20;;;16.80;99.90;;;;;;4588984;19;20022;-32
2022/10/24 12:19:03;;;;;;;11.32;10.02;;;16.80;99.90;;;;;;4590648;19;20011;-29
2022/10/24 12:20:34;;;;;;;14.45;10.68;;;16.80;99.90;;;;;;4590198;19;20021;-30
2022/10/24 12:22:05;;;;;;;12.48;10.40;;;16.80;99.90;;;;;;4591266;19;20015;-29
2022/10/24 12:23:36;;;;;;;11.70;9.80;;;16.80;99.90;;;;;;4592590;19;20082;-29
2022/10/24 12:25:26;;;;;;;13.25;10.77;;;16.80;99.90;;;;;;4592729;19;20010;-31
2022/10/24 12:27:01;;;;;;;11.60;9.07;;;16.90;99.90;;;;;;4591975;19;20078;-30
2022/10/24 12:28:32;;;;;;;10.50;8.98;;;16.90;99.90;;;;;;4591607;19;20010;-30
2022/10/24 12:30:14;;;;;;;11.77;10.13;;;16.80;99.90;;;;;;4592039;19;20451;-29
2022/10/24 12:31:46;;;;;;;9.95;8.40;;;16.80;99.90;;;;;;4592391;19;20018;-30
2022/10/24 12:33:24;;;;;;;;;;;16.80;99.90;;;;;;4593875;19;20456;-30
2022/10/24 12:34:59;;;;;;;12.18;8.50;;;16.90;99.90;;;;;;4591130;19;19922;-29
2022/10/24 12:37:10;;;;;;;11.35;8.48;;;16.90;99.90;;;;;;4591455;19;20011;-28
2022/10/24 12:39:01;;;;;;;12.23;9.35;;;16.90;99.90;;;;;;4590167;19;20018;-32
2022/10/24 12:40:44;;;;;;;11.23;9.27;;;16.80;99.90;;;;;;4590510;19;20071;-33
2022/10/24 12:42:24;;;;;;;11.38;9.35;;;16.90;99.90;;;;;;4590109;19;20010;-31
2022/10/24 12:44:33;;;;;;;9.80;8.80;;;16.80;99.90;;;;;;4589838;19;20360;-30
2022/10/24 12:46:17;;;;;;;11.32;9.52;;;16.90;99.90;;;;;;4590155;19;20010;-31
2022/10/24 12:48:11;;;;;;;11.13;8.48;;;16.90;99.90;;;;;;4590201;19;20010;-29
2022/10/24 12:49:42;;;;;;;10.57;8.32;;;17.00;99.90;;;;;;4589495;19;20019;-30
2022/10/24 12:51:31;;;;;;;10.57;8.75;;;17.00;99.90;;;;;;4589328;19;20017;-30
2022/10/24 12:53:24;;;;;;;11.02;9.25;;;17.00;99.90;;;;;;4589634;19;20385;-29
2022/10/24 12:54:55;;;;;;;9.88;8.45;;;16.90;99.90;;;;;;4587035;19;20022;-32
2022/10/24 12:56:26;;;;;;;11.15;9.25;;;17.00;99.90;;;;;;4586104;19;20007;-30
2022/10/24 12:57:57;;;;;;;10.57;9.30;;;17.00;99.90;;;;;;4586599;19;20529;-33
2022/10/24 12:59:31;;;;;;;10.40;9.15;;;17.00;99.90;;;;;;4586871;19;20041;-31
2022/10/24 13:01:04;;;;;;;10.57;9.48;;;17.00;99.90;;;;;;4586943;19;20116;-29
2022/10/24 13:02:44;;;;;;;11.95;9.50;;;17.00;99.90;;;;;;4587110;19;20010;-29
2022/10/24 13:04:40;;;;;;;11.68;9.30;;;17.00;99.90;;;;;;4586766;19;20086;-29
2022/10/24 13:06:41;;;;;;;10.85;8.55;;;17.00;99.90;;;;;;4588104;19;20010;-30
2022/10/24 13:08:12;;;;;;;11.63;9.45;;;17.00;99.90;;;;;;4588024;19;20029;-31
2022/10/24 13:09:49;;;;;;;11.25;9.63;;;17.00;99.90;;;;;;4588362;19;20081;-30
2022/10/24 13:11:35;;;;;;;10.57;9.45;;;17.00;99.90;;;;;;4589217;19;20020;-31
2022/10/24 18:37:47;;;;;;;23.60;18.38;;;17.10;99.90;;;;;;4588620;19;20458;-27
2022/10/24 18:39:19;;;;;;;20.30;18.02;;;17.10;99.90;;;;;;4589168;19;20458;-28
2022/10/24 18:40:50;;;;;;;;;;;17.10;99.90;;;;;;4588777;19;20010;-28
2022/10/24 18:43:15;;;;;;;20.35;17.98;;;17.10;99.90;;;;;;4589296;19;19927;-28
2022/10/24 18:44:47;;;;;;;22.90;17.73;;;17.10;99.90;;;;;;4587509;19;20014;-26
2022/10/24 18:46:19;;;;;;;20.02;16.98;;;17.10;99.90;;;;;;4585160;19;20014;-27
2022/10/24 18:47:50;;;;;;;23.00;17.92;;;17.10;99.90;;;;;;4587729;19;20427;-28
2022/10/24 18:49:22;;;;;;;20.52;16.40;;;17.10;99.90;;;;;;4586371;19;20015;-27
2022/10/24 18:50:54;;;;;;;;;;;17.10;99.90;;;;;;4587323;19;20037;-27
2022/10/24 18:52:40;;;;;;;21.77;16.88;;;17.10;99.90;;;;;;4586795;19;19919;-27
2022/10/24 18:54:13;;;;;;;23.80;16.73;;;17.10;99.90;;;;;;4587206;19;20035;-27
2022/10/24 18:55:45;;;;;;;20.42;17.25;;;17.10;99.90;;;;;;4587216;19;20026;-28